Time;durP1;ratioP1;P1;durP2;ratioP2;P2;SDS_P1;SDS_P2;PMS_P1;PMS_P2;Temp;Humidity;BMP_temperature;BMP_pressure;BME280_temperature;BME280_humidity;BME280_pressure;Samples;Min_cycle;Max_cycle;Signal;HPM_P1;HPM_P2
2020/12/15 00:02:11;;;;;;;0.10;0.10;;;12.30;99.90;;;;;;5016016;28;20033;-89
2020/12/15 00:04:36;;;;;;;0.65;0.65;;;12.40;99.90;;;;;;5033819;28;20055;-89
2020/12/15 00:07:03;;;;;;;0.10;0.10;;;12.40;99.90;;;;;;5033804;28;20021;-89
2020/12/15 00:09:35;;;;;;;0.10;0.10;;;12.40;99.90;;;;;;5032707;28;20063;-89
2020/12/15 00:12:00;;;;;;;0.10;0.10;;;12.40;99.90;;;;;;5044227;28;20509;-89
2020/12/15 00:14:26;;;;;;;0.10;0.10;;;12.40;99.90;;;;;;5032668;28;20032;-89
2020/12/15 00:16:58;;;;;;;0.00;0.00;;;12.40;99.90;;;;;;5028966;28;20112;-89
2020/12/15 00:19:24;;;;;;;0.10;0.10;;;12.60;99.90;;;;;;5034032;28;20516;-88
2020/12/15 00:21:51;;;;;;;0.10;0.10;;;12.50;99.90;;;;;;5032435;28;20032;-88
2020/12/15 00:24:17;;;;;;;0.63;0.45;;;12.60;99.90;;;;;;5032015;28;20100;-88
2020/12/15 00:26:43;;;;;;;0.10;0.10;;;12.60;99.90;;;;;;5015570;28;20037;-88
2020/12/15 00:29:13;;;;;;;0.10;0.10;;;12.60;99.90;;;;;;5023555;28;20075;-90
2020/12/15 00:31:38;;;;;;;0.05;0.05;;;12.70;99.90;;;;;;5016087;28;20049;-88
2020/12/15 00:34:04;;;;;;;0.10;0.10;;;12.80;99.90;;;;;;5019724;28;20064;-87
2020/12/15 00:36:30;;;;;;;0.10;0.10;;;12.90;99.90;;;;;;5038180;28;20029;-88
2020/12/15 00:38:56;;;;;;;0.15;0.15;;;12.70;99.90;;;;;;5013919;28;20026;-88
2020/12/15 00:41:22;;;;;;;0.43;0.43;;;12.80;99.90;;;;;;5032357;28;20518;-88
2020/12/15 00:43:48;;;;;;;0.00;0.00;;;12.70;99.90;;;;;;5014149;28;20397;-88
2020/12/15 00:46:18;;;;;;;0.10;0.10;;;12.80;99.90;;;;;;5014083;28;20033;-87
2020/12/15 00:48:44;;;;;;;0.03;0.03;;;12.90;99.90;;;;;;5014467;28;20564;-90
2020/12/15 00:51:17;;;;;;;0.10;0.10;;;12.90;99.90;;;;;;5034099;28;20033;-89
2020/12/15 00:53:44;;;;;;;0.55;0.43;;;12.90;99.90;;;;;;5028992;28;20025;-90
2020/12/15 00:56:11;;;;;;;0.10;0.10;;;12.90;99.90;;;;;;5019881;28;20017;-90
2020/12/15 00:58:37;;;;;;;0.10;0.10;;;13.00;99.90;;;;;;5015798;28;20032;-90
2020/12/15 01:01:07;;;;;;;0.20;0.20;;;13.00;99.90;;;;;;5015860;28;20025;-89
2020/12/15 01:03:33;;;;;;;0.38;0.20;;;12.90;99.90;;;;;;5015915;28;20382;-90
2020/12/15 01:05:59;;;;;;;0.10;0.10;;;12.90;99.90;;;;;;5016368;28;20479;-90
2020/12/15 01:08:25;;;;;;;0.28;0.28;;;13.00;99.90;;;;;;5015596;28;20033;-89
2020/12/15 01:10:52;;;;;;;0.10;0.10;;;12.90;99.90;;;;;;5027867;28;20037;-90
2020/12/15 01:13:18;;;;;;;0.43;0.35;;;12.90;99.90;;;;;;5015304;28;20026;-91
2020/12/15 01:15:44;;;;;;;0.10;0.10;;;12.80;99.90;;;;;;5039985;28;20036;-90
2020/12/15 01:18:10;;;;;;;0.10;0.10;;;12.90;99.90;;;;;;5023944;28;20032;-91
2020/12/15 01:20:36;;;;;;;0.10;0.10;;;12.80;99.90;;;;;;5035460;28;20048;-91
2020/12/15 01:23:03;;;;;;;0.15;0.10;;;12.90;99.90;;;;;;5052704;28;20350;-91
2020/12/15 01:25:28;;;;;;;0.10;0.10;;;12.80;99.90;;;;;;5052660;28;20029;-91
2020/12/15 01:27:54;;;;;;;0.10;0.10;;;12.70;99.90;;;;;;5035384;28;20282;-91
2020/12/15 01:30:21;;;;;;;0.30;0.30;;;12.70;99.90;;;;;;5035812;28;20029;-91
2020/12/15 01:32:47;;;;;;;0.08;0.08;;;12.60;99.90;;;;;;5035829;28;20033;-91
2020/12/15 01:35:14;;;;;;;0.10;0.10;;;12.80;99.90;;;;;;5035837;28;20068;-91
2020/12/15 01:37:40;;;;;;;0.10;0.10;;;12.80;99.90;;;;;;5036030;28;20313;-91
2020/12/15 01:40:07;;;;;;;0.10;0.10;;;12.70;99.90;;;;;;5035626;28;20032;-91
2020/12/15 01:42:34;;;;;;;0.13;0.13;;;12.60;99.90;;;;;;5052851;28;20032;-91
2020/12/15 01:45:00;;;;;;;0.40;0.40;;;12.40;99.90;;;;;;5035421;28;20517;-91
2020/12/15 01:47:27;;;;;;;0.10;0.10;;;12.30;99.90;;;;;;5035406;28;20021;-90
2020/12/15 01:49:54;;;;;;;0.60;0.60;;;12.50;99.90;;;;;;5035464;28;20029;-91
2020/12/15 01:52:20;;;;;;;0.20;0.20;;;12.70;99.90;;;;;;5035516;28;20021;-90
2020/12/15 01:54:46;;;;;;;0.10;0.10;;;12.70;99.90;;;;;;5044889;28;20040;-90
2020/12/15 01:57:12;;;;;;;0.50;0.50;;;12.80;99.90;;;;;;5033319;28;20023;-90
2020/12/15 01:59:38;;;;;;;0.10;0.10;;;12.80;99.90;;;;;;5032622;28;20475;-89
2020/12/15 02:02:04;;;;;;;0.13;0.13;;;12.80;99.90;;;;;;5048850;28;20808;-89
2020/12/15 02:04:30;;;;;;;0.40;0.40;;;12.80;99.90;;;;;;5047184;28;20084;-88
2020/12/15 02:06:56;;;;;;;0.37;0.37;;;13.00;99.90;;;;;;5017488;28;20029;-89
2020/12/15 02:09:23;;;;;;;0.10;0.10;;;12.70;99.90;;;;;;5025576;28;20024;-89
2020/12/15 02:11:49;;;;;;;0.73;0.32;;;12.70;99.90;;;;;;5033062;28;20039;-89
2020/12/15 02:14:15;;;;;;;0.10;0.10;;;12.60;99.90;;;;;;5030421;28;20443;-88
2020/12/15 02:16:42;;;;;;;0.15;0.15;;;12.60;99.90;;;;;;5046913;28;20044;-89
2020/12/15 02:19:18;;;;;;;0.32;0.30;;;12.70;99.90;;;;;;5026634;28;20037;-89
2020/12/15 02:21:51;;;;;;;;;;;12.60;99.90;;;;;;5065668;28;20029;-88
2020/12/15 02:24:17;;;;;;;3.10;0.65;;;12.90;99.90;;;;;;5033126;28;19909;-89
2020/12/15 02:26:43;;;;;;;10.98;0.75;;;12.70;99.90;;;;;;5046292;28;20041;-90
2020/12/15 02:29:09;;;;;;;0.95;0.95;;;12.80;99.90;;;;;;5021983;28;20481;-89
2020/12/15 02:31:35;;;;;;;0.10;0.10;;;12.70;99.90;;;;;;5060413;28;20029;-89
2020/12/15 02:34:01;;;;;;;0.20;0.20;;;12.70;99.90;;;;;;5026110;28;20029;-90
2020/12/15 02:36:30;;;;;;;0.10;0.10;;;12.70;99.90;;;;;;5032377;28;20056;-89
2020/12/15 02:39:11;;;;;;;0.30;0.28;;;12.90;99.90;;;;;;5032161;28;20032;-89
2020/12/15 02:41:36;;;;;;;0.20;0.20;;;12.80;99.90;;;;;;5049348;28;20175;-88
2020/12/15 02:44:04;;;;;;;3.60;1.02;;;12.80;99.90;;;;;;5058889;28;20099;-88
2020/12/15 02:46:30;;;;;;;0.10;0.10;;;12.80;99.90;;;;;;5056067;28;20120;-88
2020/12/15 02:48:56;;;;;;;0.65;0.65;;;12.90;99.90;;;;;;5054764;28;20107;-88
2020/12/15 02:51:23;;;;;;;0.10;0.10;;;12.90;99.90;;;;;;5048737;28;20028;-89
2020/12/15 02:53:49;;;;;;;0.80;0.55;;;12.90;99.90;;;;;;5066916;28;20263;-89
2020/12/15 02:56:23;;;;;;;0.55;0.47;;;13.00;99.90;;;;;;5051958;28;20017;-89
2020/12/15 02:58:50;;;;;;;0.20;0.20;;;12.10;99.90;;;;;;5071149;28;20021;-89
2020/12/15 03:01:16;;;;;;;;;;;12.00;99.90;;;;;;5054864;28;20024;-90
2020/12/15 03:03:42;;;;;;;3.92;0.73;;;12.10;99.90;;;;;;5059899;28;20293;-89
2020/12/15 03:06:08;;;;;;;0.10;0.10;;;12.10;99.90;;;;;;5059537;28;20067;-89
2020/12/15 03:08:34;;;;;;;0.10;0.10;;;12.10;99.90;;;;;;5072957;28;20052;-89
2020/12/15 03:11:01;;;;;;;0.30;0.30;;;12.30;99.90;;;;;;5073853;28;20514;-89
2020/12/15 03:13:27;;;;;;;;;;;12.20;99.90;;;;;;5072476;28;20020;-89
2020/12/15 03:15:52;;;;;;;0.33;0.30;;;12.30;99.90;;;;;;5071290;28;19930;-89
2020/12/15 03:18:18;;;;;;;0.10;0.10;;;12.40;99.90;;;;;;5055269;28;20029;-89
2020/12/15 03:20:48;;;;;;;0.20;0.20;;;12.40;99.90;;;;;;5065428;28;20109;-88
2020/12/15 03:23:16;;;;;;;0.00;0.00;;;12.40;99.90;;;;;;5058196;28;20020;-88
2020/12/15 03:25:42;;;;;;;0.30;0.30;;;12.40;99.90;;;;;;5050536;28;20105;-88
2020/12/15 03:28:08;;;;;;;1.45;0.30;;;12.40;99.90;;;;;;5057518;28;20565;-89
2020/12/15 03:30:35;;;;;;;0.37;0.37;;;12.40;99.90;;;;;;5063972;28;20691;-87
2020/12/15 03:33:01;;;;;;;0.55;0.20;;;12.40;99.90;;;;;;5063919;28;20098;-87
2020/12/15 03:35:27;;;;;;;0.10;0.10;;;12.50;99.90;;;;;;5053502;28;20013;-88
2020/12/15 03:37:56;;;;;;;0.10;0.10;;;12.30;99.90;;;;;;5062873;28;20299;-88
2020/12/15 03:40:23;;;;;;;0.63;0.35;;;12.10;99.90;;;;;;5067581;28;20063;-89
2020/12/15 03:42:49;;;;;;;0.40;0.40;;;12.10;99.90;;;;;;5066552;28;20028;-89
2020/12/15 03:45:15;;;;;;;0.20;0.20;;;11.90;99.90;;;;;;5065108;28;20047;-90
2020/12/15 03:47:42;;;;;;;0.63;0.50;;;11.80;99.90;;;;;;5074833;28;20051;-90
2020/12/15 03:50:11;;;;;;;0.32;0.32;;;11.70;99.90;;;;;;5060050;28;20029;-91
2020/12/15 03:52:37;;;;;;;0.20;0.20;;;10.90;99.90;;;;;;5053920;28;20037;-91
2020/12/15 03:55:04;;;;;;;0.30;0.30;;;10.60;99.90;;;;;;5054423;28;20025;-89
2020/12/15 03:57:30;;;;;;;0.10;0.10;;;10.50;99.90;;;;;;5066636;28;20024;-89
2020/12/15 03:59:56;;;;;;;0.10;0.10;;;10.60;99.90;;;;;;5055368;28;20021;-90
2020/12/15 04:02:22;;;;;;;0.30;0.30;;;11.00;99.90;;;;;;5067273;28;20817;-91
2020/12/15 04:04:48;;;;;;;0.20;0.20;;;13.20;99.90;;;;;;5056798;28;20036;-91
2020/12/15 04:07:14;;;;;;;0.30;0.30;;;13.50;99.90;;;;;;5057181;28;20029;-92
2020/12/15 04:09:40;;;;;;;0.10;0.10;;;13.70;99.90;;;;;;5064470;28;20271;-89
2020/12/15 04:12:06;;;;;;;0.10;0.10;;;13.70;99.90;;;;;;5063364;28;20046;-90
2020/12/15 04:14:32;;;;;;;0.73;0.65;;;13.80;99.90;;;;;;5066872;28;20025;-90
2020/12/15 04:16:58;;;;;;;0.30;0.30;;;13.80;99.90;;;;;;5045294;28;20035;-89
2020/12/15 04:19:23;;;;;;;1.08;0.80;;;13.70;99.90;;;;;;5052091;28;20045;-89
2020/12/15 04:21:49;;;;;;;0.10;0.10;;;13.70;99.90;;;;;;5054047;28;20056;-89
2020/12/15 04:24:15;;;;;;;1.65;1.10;;;13.70;99.90;;;;;;5067166;28;20088;-89
2020/12/15 04:26:41;;;;;;;0.10;0.10;;;13.70;99.90;;;;;;5067269;28;20086;-89
2020/12/15 04:29:06;;;;;;;0.30;0.30;;;13.70;99.90;;;;;;5070788;28;20028;-90
2020/12/15 04:31:32;;;;;;;0.10;0.10;;;13.60;99.90;;;;;;5052768;28;20658;-89
2020/12/15 04:33:58;;;;;;;0.10;0.10;;;13.70;99.90;;;;;;5039944;28;20078;-89
2020/12/15 04:36:24;;;;;;;0.85;0.85;;;13.80;99.90;;;;;;5050337;28;20025;-89
2020/12/15 04:38:50;;;;;;;0.22;0.22;;;13.80;99.90;;;;;;5068511;28;20033;-89
2020/12/15 04:41:17;;;;;;;0.10;0.10;;;13.90;99.90;;;;;;5071575;28;20444;-89
2020/12/15 04:43:44;;;;;;;0.10;0.10;;;13.90;99.90;;;;;;5070227;28;20024;-89
2020/12/15 04:46:19;;;;;;;0.50;0.50;;;13.80;99.90;;;;;;5070008;28;20029;-89
2020/12/15 04:49:03;;;;;;;0.10;0.10;;;13.80;99.90;;;;;;5044670;28;20021;-89
2020/12/15 04:51:35;;;;;;;0.30;0.30;;;13.90;99.90;;;;;;5054676;28;20033;-89
2020/12/15 04:54:03;;;;;;;0.10;0.10;;;13.90;99.90;;;;;;5054382;28;20678;-89
2020/12/15 04:56:32;;;;;;;0.20;0.20;;;14.00;99.90;;;;;;5044109;28;20021;-89
2020/12/15 04:58:59;;;;;;;0.25;0.25;;;14.00;99.90;;;;;;5069457;28;20095;-89
2020/12/15 05:01:26;;;;;;;0.20;0.20;;;14.10;99.90;;;;;;5034728;28;20111;-89
2020/12/15 05:03:53;;;;;;;0.63;0.63;;;14.00;99.90;;;;;;5058263;28;20039;-89
2020/12/15 05:06:26;;;;;;;0.32;0.32;;;13.90;99.90;;;;;;5041204;28;20036;-89
2020/12/15 05:08:52;;;;;;;0.30;0.30;;;14.10;99.90;;;;;;5053789;28;20032;-89
2020/12/15 05:11:18;;;;;;;0.10;0.10;;;14.00;99.90;;;;;;5070459;28;20024;-90
2020/12/15 05:13:46;;;;;;;0.10;0.10;;;14.00;99.90;;;;;;5053874;28;20055;-89
2020/12/15 05:16:29;;;;;;;0.10;0.10;;;14.10;99.90;;;;;;5064663;28;20021;-89
2020/12/15 05:19:07;;;;;;;0.13;0.13;;;14.10;99.90;;;;;;5053791;28;20046;-88
2020/12/15 05:21:37;;;;;;;0.75;0.75;;;14.00;99.90;;;;;;5063986;28;20608;-89
2020/12/15 05:24:10;;;;;;;0.10;0.10;;;14.00;99.90;;;;;;5033896;28;20372;-89
2020/12/15 05:26:51;;;;;;;0.10;0.10;;;14.00;99.90;;;;;;5068369;28;20028;-90
2020/12/15 05:29:20;;;;;;;0.10;0.10;;;14.00;99.90;;;;;;5054989;28;20501;-90
2020/12/15 05:31:47;;;;;;;0.13;0.13;;;14.00;99.90;;;;;;5054477;28;20037;-89
2020/12/15 05:34:20;;;;;;;;;;;14.00;99.90;;;;;;5048760;28;20017;-90
2020/12/15 05:37:01;;;;;;;0.10;0.10;;;14.00;99.90;;;;;;5064007;28;19908;-89
2020/12/15 05:39:29;;;;;;;0.10;0.10;;;14.00;99.90;;;;;;5064022;28;20027;-89
2020/12/15 05:42:09;;;;;;;0.15;0.15;;;13.90;99.90;;;;;;5051224;28;20159;-90
2020/12/15 05:44:39;;;;;;;0.52;0.52;;;13.90;99.90;;;;;;5060932;28;20556;-94
2020/12/15 05:47:08;;;;;;;0.17;0.17;;;14.00;99.90;;;;;;5054058;28;20028;-93
2020/12/15 05:49:39;;;;;;;0.20;0.20;;;14.00;99.90;;;;;;5054363;28;20032;-93
2020/12/15 05:52:07;;;;;;;0.30;0.25;;;14.10;99.90;;;;;;5055565;28;20373;-91
2020/12/15 05:54:33;;;;;;;0.20;0.20;;;14.10;99.90;;;;;;5035926;28;20088;-94
2020/12/15 05:57:03;;;;;;;0.20;0.20;;;14.10;99.90;;;;;;5042111;28;20046;-92
2020/12/15 05:59:29;;;;;;;0.40;0.40;;;14.10;99.90;;;;;;5072812;28;20473;-93
2020/12/15 06:02:05;;;;;;;0.20;0.20;;;14.20;99.90;;;;;;5037995;28;20501;-90
2020/12/15 06:04:32;;;;;;;2.63;1.27;;;14.20;99.90;;;;;;5035251;28;20078;-90
2020/12/15 06:07:03;;;;;;;0.60;0.60;;;14.10;99.90;;;;;;5035326;28;20041;-91
2020/12/15 06:09:30;;;;;;;0.10;0.10;;;14.10;99.90;;;;;;5044842;28;20079;-91
2020/12/15 06:11:58;;;;;;;0.15;0.15;;;14.00;99.90;;;;;;5067974;28;20489;-92
2020/12/15 06:14:26;;;;;;;0.10;0.10;;;14.00;99.90;;;;;;5057539;28;20036;-91
2020/12/15 06:16:52;;;;;;;0.28;0.28;;;13.90;99.90;;;;;;5075778;28;20028;-92
2020/12/15 06:19:19;;;;;;;0.47;0.47;;;13.90;99.90;;;;;;5055250;28;20457;-93
2020/12/15 06:21:56;;;;;;;0.70;0.70;;;13.90;99.90;;;;;;5059465;28;20271;-93
2020/12/15 06:24:30;;;;;;;0.25;0.25;;;13.80;99.90;;;;;;5059569;28;20358;-90
2020/12/15 06:27:01;;;;;;;0.30;0.30;;;13.90;99.90;;;;;;5058813;28;20028;-92
2020/12/15 06:29:39;;;;;;;0.22;0.22;;;13.90;99.90;;;;;;5060088;28;20435;-92
2020/12/15 06:32:17;;;;;;;0.20;0.20;;;13.90;99.90;;;;;;5059060;28;20127;-94
2020/12/15 06:34:47;;;;;;;0.52;0.50;;;14.00;99.90;;;;;;5059311;28;20024;-92
2020/12/15 06:37:15;;;;;;;0.13;0.13;;;14.00;99.90;;;;;;5075694;28;20042;-94
2020/12/15 06:39:57;;;;;;;0.20;0.20;;;13.90;99.90;;;;;;5077783;28;20119;-94
2020/12/15 06:42:23;;;;;;;0.32;0.32;;;14.00;99.90;;;;;;5077701;28;20041;-93
2020/12/15 06:44:58;;;;;;;0.40;0.40;;;14.00;99.90;;;;;;5075854;28;20582;-94
2020/12/15 06:47:26;;;;;;;0.75;0.75;;;14.10;99.90;;;;;;5076031;28;20032;-91
2020/12/15 06:49:52;;;;;;;0.20;0.17;;;14.00;99.90;;;;;;5059281;28;20040;-95
2020/12/15 06:52:27;;;;;;;0.73;0.30;;;14.00;99.90;;;;;;5075977;28;20107;-94
2020/12/15 06:54:57;;;;;;;0.10;0.10;;;13.90;99.90;;;;;;5076677;28;20511;-94
2020/12/15 06:57:31;;;;;;;0.47;0.47;;;13.90;99.90;;;;;;5075955;28;20047;-94
2020/12/15 06:59:59;;;;;;;3.25;2.78;;;14.00;99.90;;;;;;5075895;28;20033;-94
2020/12/15 07:02:32;;;;;;;2.90;2.70;;;14.10;99.90;;;;;;5076333;28;20025;-94
2020/12/15 07:05:19;;;;;;;4.25;2.75;;;14.00;99.90;;;;;;5059428;28;20052;-95
2020/12/15 07:07:48;;;;;;;0.40;0.40;;;14.00;99.90;;;;;;5076402;28;20028;-94
2020/12/15 07:10:14;;;;;;;0.32;0.32;;;14.00;99.90;;;;;;5075994;28;20024;-93
2020/12/15 07:12:42;;;;;;;1.47;1.37;;;14.00;99.90;;;;;;5075099;28;20028;-92
2020/12/15 07:15:10;;;;;;;0.50;0.50;;;14.10;99.90;;;;;;5075764;28;20017;-93
2020/12/15 07:17:36;;;;;;;0.20;0.20;;;14.10;99.90;;;;;;5075451;28;20043;-92
2020/12/15 07:20:03;;;;;;;0.10;0.10;;;14.10;99.90;;;;;;5059021;28;20020;-95
2020/12/15 07:22:29;;;;;;;0.10;0.10;;;14.10;99.90;;;;;;5076536;28;20032;-95
2020/12/15 07:24:55;;;;;;;0.10;0.10;;;14.10;99.90;;;;;;5059058;28;20382;-94
2020/12/15 07:27:23;;;;;;;0.20;0.20;;;14.10;99.90;;;;;;5058400;28;20036;-94
2020/12/15 07:29:53;;;;;;;0.22;0.22;;;14.10;99.90;;;;;;5075629;28;20546;-94
2020/12/15 07:32:19;;;;;;;0.20;0.20;;;14.10;99.90;;;;;;5075675;28;20059;-93
2020/12/15 07:34:45;;;;;;;0.10;0.10;;;14.00;99.90;;;;;;5058702;28;20059;-94
2020/12/15 07:37:17;;;;;;;0.10;0.10;;;14.10;99.90;;;;;;5058625;28;20250;-95
2020/12/15 07:39:44;;;;;;;0.10;0.10;;;14.10;99.90;;;;;;5075294;28;20016;-95
2020/12/15 07:42:09;;;;;;;1.25;1.15;;;14.10;99.90;;;;;;5075169;28;20028;-96
2020/12/15 07:44:35;;;;;;;0.57;0.57;;;14.10;99.90;;;;;;5058698;28;20029;-95
2020/12/15 07:47:02;;;;;;;0.20;0.20;;;14.10;99.90;;;;;;5058256;28;20067;-94
2020/12/15 07:49:28;;;;;;;0.60;0.60;;;14.20;99.90;;;;;;5075228;28;20035;-95
2020/12/15 07:51:54;;;;;;;9.98;1.92;;;14.20;99.90;;;;;;5058821;28;20028;-93
2020/12/15 07:54:20;;;;;;;0.20;0.20;;;14.20;99.90;;;;;;5061834;28;20094;-96
2020/12/15 07:56:47;;;;;;;0.50;0.50;;;14.20;99.90;;;;;;5076323;28;20028;-94
2020/12/15 07:59:15;;;;;;;1.35;0.60;;;14.20;99.90;;;;;;5060461;28;20024;-96
2020/12/15 08:01:41;;;;;;;1.20;0.55;;;14.20;99.90;;;;;;5059898;28;20024;-95
2020/12/15 08:04:12;;;;;;;1.35;0.98;;;14.20;99.90;;;;;;5058786;28;20078;-94
2020/12/15 08:06:49;;;;;;;0.10;0.10;;;14.20;99.90;;;;;;5059208;28;20032;-95
2020/12/15 08:09:16;;;;;;;0.20;0.20;;;14.20;99.90;;;;;;5050573;28;20035;-92
2020/12/15 08:11:49;;;;;;;0.10;0.10;;;14.20;99.90;;;;;;5061731;28;20040;-93
2020/12/15 08:14:18;;;;;;;0.73;0.73;;;14.20;99.90;;;;;;5073151;28;20020;-93
2020/12/15 08:16:44;;;;;;;0.10;0.10;;;14.20;99.90;;;;;;5064938;28;20036;-92
2020/12/15 08:19:11;;;;;;;0.20;0.20;;;14.30;99.90;;;;;;5050226;28;20037;-93
2020/12/15 08:21:42;;;;;;;1.98;0.75;;;14.30;99.90;;;;;;5042945;28;20331;-92
2020/12/15 08:24:10;;;;;;;0.40;0.40;;;14.30;99.90;;;;;;5065361;28;20028;-92
2020/12/15 08:26:37;;;;;;;1.55;1.45;;;14.30;99.90;;;;;;5058841;28;20090;-92
2020/12/15 08:29:11;;;;;;;1.67;1.17;;;14.30;99.90;;;;;;5072943;28;20039;-92
2020/12/15 08:31:44;;;;;;;0.50;0.50;;;14.30;99.90;;;;;;5067599;28;20032;-93
2020/12/15 08:34:18;;;;;;;0.93;0.73;;;14.30;99.90;;;;;;5068040;28;20025;-93
2020/12/15 08:36:49;;;;;;;0.50;0.50;;;14.30;99.90;;;;;;5073390;28;20508;-93
2020/12/15 08:39:18;;;;;;;2.75;0.50;;;14.40;99.90;;;;;;5052911;28;20052;-91
2020/12/15 08:42:10;;;;;;;0.55;0.55;;;14.40;99.90;;;;;;5070724;28;20024;-92
2020/12/15 08:44:36;;;;;;;0.20;0.20;;;14.50;99.90;;;;;;5043236;28;20040;-93
2020/12/15 08:47:01;;;;;;;0.10;0.10;;;14.50;99.90;;;;;;5052406;28;20029;-91
2020/12/15 08:49:27;;;;;;;0.55;0.32;;;14.50;99.90;;;;;;5041279;28;20032;-92
2020/12/15 08:51:54;;;;;;;0.20;0.20;;;14.60;99.90;;;;;;5064218;28;20524;-92
2020/12/15 08:54:21;;;;;;;0.52;0.52;;;14.70;99.90;;;;;;5067705;28;20778;-92
2020/12/15 08:56:50;;;;;;;0.70;0.55;;;14.60;99.90;;;;;;5054003;28;20025;-92
2020/12/15 08:59:18;;;;;;;0.80;0.80;;;14.60;99.90;;;;;;5053669;28;20016;-92
2020/12/15 09:01:45;;;;;;;0.20;0.20;;;14.70;99.90;;;;;;5053599;28;20043;-91
2020/12/15 09:04:11;;;;;;;;;;;14.70;99.90;;;;;;5053681;28;20025;-92
2020/12/15 09:06:39;;;;;;;0.93;0.93;;;14.80;99.90;;;;;;5048867;28;19911;-91
2020/12/15 09:09:06;;;;;;;0.30;0.30;;;14.90;99.90;;;;;;5056155;28;20119;-92
2020/12/15 09:11:33;;;;;;;0.43;0.38;;;15.00;99.90;;;;;;5050049;28;20036;-92
2020/12/15 09:14:01;;;;;;;0.20;0.20;;;15.00;99.90;;;;;;5047454;28;20033;-92
2020/12/15 09:16:29;;;;;;;0.15;0.15;;;14.90;99.90;;;;;;5056774;28;20027;-92
2020/12/15 09:18:56;;;;;;;0.45;0.45;;;14.80;99.90;;;;;;5041313;28;20063;-92
2020/12/15 09:21:22;;;;;;;0.22;0.22;;;14.70;99.90;;;;;;5067293;28;20063;-92
2020/12/15 09:23:49;;;;;;;0.10;0.10;;;14.60;99.90;;;;;;5061050;28;20055;-92
2020/12/15 09:26:16;;;;;;;0.10;0.10;;;14.60;99.90;;;;;;5060797;28;20032;-93
2020/12/15 09:28:42;;;;;;;0.57;0.55;;;14.60;99.90;;;;;;5056128;28;20031;-92
2020/12/15 09:31:12;;;;;;;1.50;0.40;;;14.70;99.90;;;;;;5054375;28;20481;-93
2020/12/15 09:33:38;;;;;;;0.30;0.30;;;14.60;99.90;;;;;;5068810;28;20085;-93
2020/12/15 09:36:04;;;;;;;0.10;0.10;;;14.50;99.90;;;;;;5055046;28;20028;-93
2020/12/15 09:38:29;;;;;;;1.10;1.02;;;14.50;99.90;;;;;;5054788;28;20036;-93
2020/12/15 09:40:55;;;;;;;0.10;0.10;;;14.40;99.90;;;;;;5054356;28;20021;-93
2020/12/15 09:43:21;;;;;;;0.32;0.30;;;14.40;99.90;;;;;;5040928;28;20059;-93
2020/12/15 09:45:47;;;;;;;1.30;1.20;;;14.40;99.90;;;;;;5053959;28;20025;-93
2020/12/15 09:48:12;;;;;;;1.90;0.70;;;14.40;99.90;;;;;;5062626;28;20033;-93
2020/12/15 09:50:38;;;;;;;0.55;0.55;;;14.40;99.90;;;;;;5054082;28;20024;-92
2020/12/15 09:53:04;;;;;;;0.40;0.40;;;14.70;99.90;;;;;;5053894;28;20039;-92
2020/12/15 09:55:30;;;;;;;0.50;0.50;;;14.80;99.90;;;;;;5052189;28;20029;-92
2020/12/15 09:57:55;;;;;;;0.10;0.10;;;14.60;99.90;;;;;;5054422;28;20028;-93
2020/12/15 10:00:21;;;;;;;0.57;0.57;;;14.60;99.90;;;;;;5054487;28;20051;-94
2020/12/15 10:02:47;;;;;;;0.80;0.80;;;14.50;99.90;;;;;;5051943;28;20025;-91
2020/12/15 10:05:12;;;;;;;1.05;1.00;;;14.50;99.90;;;;;;5052077;28;20029;-93
2020/12/15 10:07:38;;;;;;;0.30;0.30;;;14.60;99.90;;;;;;5052614;28;20021;-93
2020/12/15 10:10:05;;;;;;;0.28;0.28;;;14.60;99.90;;;;;;5055466;28;20038;-94
2020/12/15 10:12:31;;;;;;;0.40;0.40;;;14.60;99.90;;;;;;5072607;28;20028;-94
2020/12/15 10:14:57;;;;;;;0.45;0.45;;;14.70;99.90;;;;;;5056011;28;20074;-94
2020/12/15 10:17:23;;;;;;;0.30;0.30;;;14.70;99.90;;;;;;5055817;28;20033;-93
2020/12/15 10:19:49;;;;;;;1.67;1.55;;;14.70;99.90;;;;;;5055638;28;20461;-93
2020/12/15 10:22:14;;;;;;;0.80;0.80;;;14.80;99.90;;;;;;5055978;28;20040;-94
2020/12/15 10:24:40;;;;;;;0.28;0.28;;;14.70;99.90;;;;;;5056090;28;20040;-93
2020/12/15 10:27:06;;;;;;;0.13;0.13;;;14.70;99.90;;;;;;5051742;28;20128;-92
2020/12/15 10:29:33;;;;;;;0.10;0.10;;;14.80;99.90;;;;;;5054004;28;20029;-92
2020/12/15 10:31:59;;;;;;;0.93;0.68;;;14.80;99.90;;;;;;5054017;28;20035;-92
2020/12/15 10:34:25;;;;;;;0.22;0.22;;;14.90;99.90;;;;;;5054792;28;20493;-94
2020/12/15 10:36:51;;;;;;;0.32;0.32;;;15.10;99.90;;;;;;5052320;28;20027;-92
2020/12/15 10:39:17;;;;;;;0.52;0.52;;;15.10;99.90;;;;;;5034098;28;20116;-92
2020/12/15 10:41:43;;;;;;;0.73;0.73;;;15.00;99.90;;;;;;5048498;28;20032;-92
2020/12/15 10:44:15;;;;;;;0.40;0.40;;;14.90;99.90;;;;;;5054247;28;20511;-92
2020/12/15 10:46:42;;;;;;;2.83;1.35;;;14.80;99.90;;;;;;5071188;28;20138;-92
2020/12/15 10:49:29;;;;;;;0.20;0.20;;;14.80;99.90;;;;;;5068990;28;20112;-93
2020/12/15 10:51:55;;;;;;;;;;;14.90;99.90;;;;;;5065625;28;20643;-93
2020/12/15 10:54:20;;;;;;;0.57;0.57;;;14.80;99.90;;;;;;5065065;28;19952;-93
2020/12/15 10:56:46;;;;;;;0.77;0.63;;;14.80;99.90;;;;;;5034469;28;20014;-92
2020/12/15 10:59:12;;;;;;;3.00;0.45;;;14.70;99.90;;;;;;5052009;28;20420;-92
2020/12/15 11:01:38;;;;;;;0.50;0.50;;;14.50;99.90;;;;;;5056190;28;20047;-93
2020/12/15 11:04:03;;;;;;;0.38;0.32;;;14.40;99.90;;;;;;5058073;28;20070;-92
2020/12/15 11:06:31;;;;;;;0.40;0.40;;;14.40;99.90;;;;;;5058114;28;20025;-93
2020/12/15 11:08:57;;;;;;;0.10;0.10;;;14.30;99.90;;;;;;5057988;28;20032;-93
2020/12/15 11:11:22;;;;;;;0.30;0.30;;;14.40;99.90;;;;;;5060425;28;20166;-93
2020/12/15 11:13:48;;;;;;;0.10;0.10;;;14.50;99.90;;;;;;5057678;28;20017;-92
2020/12/15 11:16:21;;;;;;;0.10;0.10;;;14.70;99.90;;;;;;5043434;28;20035;-92
2020/12/15 11:18:47;;;;;;;0.13;0.13;;;15.10;99.90;;;;;;5066092;28;20041;-93
2020/12/15 11:21:13;;;;;;;0.10;0.10;;;15.20;99.90;;;;;;5057374;28;20395;-92
2020/12/15 11:23:39;;;;;;;0.25;0.25;;;15.30;99.90;;;;;;5054070;28;20039;-93
2020/12/15 11:26:05;;;;;;;0.10;0.10;;;15.30;99.90;;;;;;5054218;28;20493;-91
2020/12/15 11:28:31;;;;;;;0.17;0.17;;;15.10;99.90;;;;;;5054472;28;20048;-92
2020/12/15 11:30:57;;;;;;;0.50;0.50;;;15.20;99.90;;;;;;5054303;28;20025;-92
2020/12/15 11:33:23;;;;;;;0.30;0.30;;;15.20;99.90;;;;;;5055391;28;20497;-93
2020/12/15 11:35:50;;;;;;;0.10;0.10;;;15.00;99.90;;;;;;5066171;28;20086;-93
2020/12/15 11:38:17;;;;;;;;;;;14.90;99.90;;;;;;5062403;28;20054;-92
2020/12/15 11:40:43;;;;;;;0.35;0.35;;;14.70;99.90;;;;;;5074550;28;20434;-92
2020/12/15 11:43:09;;;;;;;0.10;0.10;;;14.40;99.90;;;;;;5074310;28;20033;-92
2020/12/15 11:45:35;;;;;;;0.23;0.23;;;14.60;99.90;;;;;;5053306;28;20509;-93
2020/12/15 11:48:01;;;;;;;0.10;0.10;;;14.70;99.90;;;;;;5057399;28;20028;-91
2020/12/15 11:50:29;;;;;;;0.10;0.10;;;14.60;99.90;;;;;;5071747;28;20405;-93
2020/12/15 11:52:59;;;;;;;0.17;0.17;;;14.70;99.90;;;;;;5062126;28;20030;-92
2020/12/15 11:55:25;;;;;;;0.15;0.15;;;14.50;99.90;;;;;;5057141;28;20063;-92
2020/12/15 11:57:53;;;;;;;1.60;0.45;;;14.30;99.90;;;;;;5057357;28;20055;-93
2020/12/15 12:00:19;;;;;;;0.32;0.32;;;14.40;99.90;;;;;;5057178;28;20029;-92
2020/12/15 12:02:45;;;;;;;0.30;0.30;;;14.30;99.90;;;;;;5057137;28;20115;-93
2020/12/15 12:05:11;;;;;;;0.35;0.35;;;14.40;99.90;;;;;;5056940;28;20028;-93
2020/12/15 12:07:37;;;;;;;0.38;0.38;;;14.40;99.90;;;;;;5059419;28;20117;-92
2020/12/15 12:10:04;;;;;;;0.10;0.10;;;14.50;99.90;;;;;;5057071;28;20036;-92
2020/12/15 12:12:30;;;;;;;0.10;0.10;;;14.70;99.90;;;;;;5056390;28;20028;-91
2020/12/15 12:14:55;;;;;;;1.45;0.98;;;14.70;99.90;;;;;;5056771;28;20021;-92
2020/12/15 12:17:22;;;;;;;0.10;0.10;;;14.70;99.90;;;;;;5067270;28;20078;-93
2020/12/15 12:19:48;;;;;;;3.30;0.50;;;14.80;99.90;;;;;;5056792;28;20056;-93
2020/12/15 12:22:14;;;;;;;0.13;0.13;;;14.50;99.90;;;;;;5073886;28;20273;-92
2020/12/15 12:24:41;;;;;;;12.45;0.80;;;14.60;99.90;;;;;;5057205;28;20123;-93
2020/12/15 12:27:07;;;;;;;0.30;0.30;;;14.50;99.90;;;;;;5053705;28;20075;-93
2020/12/15 12:29:33;;;;;;;0.13;0.13;;;14.60;99.90;;;;;;5053083;28;20103;-93
2020/12/15 12:31:59;;;;;;;0.10;0.10;;;14.60;99.90;;;;;;5053461;28;20280;-93
2020/12/15 12:34:24;;;;;;;0.10;0.10;;;14.60;99.90;;;;;;5055572;28;20104;-93
2020/12/15 12:36:50;;;;;;;0.20;0.20;;;14.60;99.90;;;;;;5053679;28;20036;-92
2020/12/15 12:39:16;;;;;;;0.10;0.10;;;14.50;99.90;;;;;;5044137;28;20074;-93
2020/12/15 12:41:42;;;;;;;0.30;0.30;;;14.40;99.90;;;;;;5055560;28;20035;-93
2020/12/15 12:44:08;;;;;;;0.08;0.08;;;14.40;99.90;;;;;;5073195;28;20116;-92
2020/12/15 12:46:33;;;;;;;0.10;0.10;;;14.10;99.90;;;;;;5056242;28;20028;-93
2020/12/15 12:48:59;;;;;;;0.30;0.30;;;14.20;99.90;;;;;;5069079;28;20426;-93
2020/12/15 12:51:28;;;;;;;0.20;0.20;;;14.20;99.90;;;;;;5053007;28;20028;-92